ADDS METAR Data INFO
IDs: Format: Raw Decoded Include TAF

Data at: 1437 UTC 22 Feb 2018

KOKC 221352Z 04006KT 3/4SM R35R/5000VP6000FT BR OVC003 M02/M02 A3031 RMK AO2 FZDZE07 SLP277 P0000 T10221022
KOKC 221313Z 03005KT 3/4SM R35R/6000VP6000FT BR OVC003 M02/M03 A3032 RMK AO2 FZDZE07 P0000 T10221028
KOKC 221305Z 04003KT 3/4SM R35R/P6000FT -FZDZ BR OVC004 M02/M03 A3033 RMK AO2 SFC VIS 1 3/4 P0000 T10221028
KOKC 221252Z 35005KT 2SM -FZDZ BR OVC004 M02/M03 A3032 RMK AO2 SFC VIS 2 1/2 SLP281 P0000 T10221028
KOKC 221218Z 02004KT 3SM -FZDZ BR OVC004 M02/M03 A3030 RMK AO2 P0000 T10221028
KOKC 221211Z 01005KT 2 1/2SM -FZDZ BR OVC005 M02/M03 A3030 RMK AO2 P0000 T10221028
KOKC 221152Z 04006KT 4SM -FZDZ BR OVC005 M02/M03 A3028 RMK AO2 FZRAB50E51FZDZB51 SLP267 4/000 P0000 60000 70017 T10221028 11022 21039 56005
KOKC 221147Z 03005KT 4SM BR OVC005 M02/M03 A3028 RMK AO2
KOKC 221052Z 03009KT 7SM OVC004 M02/M03 A3028 RMK AO2 SLP267 T10221033
KOKC 220952Z 03008KT 8SM OVC004 M03/M03 A3029 RMK AO2 FZDZE05 SLP272 P0000 T10281033
KOKC 220905Z 01008KT 8SM OVC004 M03/M03 A3031 RMK AO2 FZDZE05 P0000 T10281033
KOKC 220852Z 01007KT 6SM -FZDZ BR OVC004 M03/M03 A3032 RMK AO2 SLP281 P0000 60000 T10281033 58006
KOKC 220752Z 01006KT 5SM -FZDZ BR OVC004 M03/M03 A3032 RMK AO2 CIG 003V008 SLP283 P0000 T10281033
KOKC 220714Z 02008KT 3SM -FZDZ BR OVC003 M03/M04 A3033 RMK AO2 CIG 003V008 P0000 T10331039
KOKC 220652Z 01008KT 2 1/2SM -FZDZ BR OVC004 M03/M04 A3034 RMK AO2 FZDZE0553B13 SLP289 P0000 T10331039
KOKC 220622Z 36008KT 2SM -FZDZ BR OVC003 M03/M04 A3034 RMK AO2 FZDZE0553B13 P0000 T10331039
KOKC 220614Z 36008KT 3SM -FZDZ BR OVC003 M03/M04 A3034 RMK AO2 FZDZE0553B13 P0000 T10331039
KOKC 220609Z 01007KT 3SM BR OVC003 M03/M04 A3034 RMK AO2 FZDZE0553 P0000 T10331039
KOKC 220559Z 35008KT 2SM BR OVC003 M04/M04 A3034 RMK AO2 SFC VIS 4 FZDZE53 P0000 T10391039
KOKC 220552Z 01007KT 2SM -FZDZ BR OVC003 M03/M04 A3034 RMK AO2 SFC VIS 2 1/2 SLP289 4/000 P0000 60001 T10331039 11033 21044 410331061 51001
KOKC 220536Z 01007KT 2SM -FZDZ BR OVC003 M04/M04 A3034 RMK AO2 SFC VIS 2 1/2 P0000 T10391039
KOKC 220452Z 02009KT 3/4SM R35R/P6000FT -FZDZ BR OVC003 M04/M04 A3033 RMK AO2 SLP286 P0000 T10391044
KOKC 220352Z 01009KT 3/4SM R35R/P6000FT -FZDZ BR OVC002 M04/M04 A3035 RMK AO2 SLP292 P0000 T10391044
KOKC 220045Z 01013KT 10SM OVC009 M04/M06 A3034 RMK AO2 T10441056
KOKC 220034Z 01016G20KT 10SM OVC010 M04/M06 A3034 RMK AO2 T10441056
KOKC 212352Z 02013KT 10SM OVC009 M04/M06 A3034 RMK AO2 SLP288 931003 4/000 60016 T10441061 11039 21056 53002
KOKC 212252Z 01011KT 10SM OVC009 M04/M06 A3033 RMK AO2 FZRAE2157FZDZB2157E40PLE08 SLP284 P0000 T10391056
KOKC 212240Z 02013KT 10SM OVC009 M04/M06 A3032 RMK AO2 FZRAE2157FZDZB2157E40PLE08 P0000 T10391056
KOKC 212208Z 01012G17KT 5SM -FZDZ BR OVC011 M04/M06 A3034 RMK AO2 FZRAE2157FZDZB2157PLE08 CIG 008V012 P0000 T10441056
KOKC 212157Z 02012KT 3SM -FZDZPL BR OVC009 M04/M06 A3032 RMK AO2 FZRAE57FZDZB57 CIG 008V012 P0000 T10441056
KOKC 212152Z 02012KT 2SM -FZRAPL BR OVC009 M04/M06 A3032 RMK AO2 SFC VIS 3 FZRAB18 CIG 007V012 PRESFR SLP283 P0004 T10441056
KOKC 212129Z 01008KT 2SM -FZRAPL BR BKN008 BKN029 OVC038 M04/M06 A3035 RMK AO2 FZRAB18 PRESRR P0004 T10391056
KOKC 212118Z 03012KT 2SM -FZRAPL BR SCT008 BKN028 OVC047 M04/M05 A3033 RMK AO2 FZRAB18 P0003 T10391050
KOKC 212052Z 05013KT 1 3/4SM R35R/6000VP6000FT PL BR BKN050 OVC065 M04/M06 A3033 RMK AO2 TWR VIS 2 FZRAB18E52 SLP286 P0006 60012 T10441061 58024
KOKC 212018Z 03012KT 1SM R35R/4000VP6000FT FZRAPL BR SCT018 BKN041 OVC047 M05/M07 A3034 RMK AO2 FZRAB18 PRESFR P0004 T10501067
KOKC 212003Z 02011KT 3/4SM R35R/3000V6000FT PL BR FEW013 OVC018 M05/M06 A3036 RMK AO2 TWR VIS 1 P0002 T10501061
KOKC 211952Z 02012KT 3/4SM R35R/3000V5000FT PL BR BKN013 OVC018 M06/M07 A3038 RMK AO2 TWR VIS 1 FZRAE24 SLP303 P0006 T10561067
KOKC 211938Z 02011KT 3/4SM R35R/4000VP6000FT PL BR OVC012 M06/M07 A3038 RMK AO2 TWR VIS 1 FZRAE24 P0003 T10561067
KOKC 211924Z 03014KT 1 1/2SM PL BR OVC010 M06/M07 A3038 RMK AO2 FZRAE24 P0001 T10561067
KOKC 211852Z 01014KT 5SM -FZRAPL BR OVC010 M06/M07 A3037 RMK AO2 FZRAB25PLB51 SLP298 P0000 T10561072
KOKC 211825Z 02015KT 9SM -FZRA OVC010 M06/M07 A3038 RMK AO2 FZRAB25 P0000 T10561072
KOKC 211752Z 02014KT 10SM OVC010 M06/M08 A3040 RMK AO2 SLP311 T10561078 11056 21061 50004
KOKC 211652Z 02013KT 10SM OVC012 M06/M08 A3042 RMK AO2 SLP315 T10561078
KOKC 211552Z 03015G21KT 10SM OVC012 M06/M08 A3040 RMK AO2 SLP309 T10611083
KOKC 211452Z 02015G22KT 10SM OVC013 M06/M08 A3039 RMK AO2 SLP307 T10611083 50009
KOKC 211352Z 01017G23KT 10SM OVC014 M06/M08 A3039 RMK AO2 SLP308 T10611083
KOKC 211252Z 01016G22KT 10SM OVC014 M06/M08 A3040 RMK AO2 SLP308 T10611083 $
KOKC 211229Z 01018G25KT 10SM OVC014 M06/M08 A3038 RMK AO2 T10611083 $
KOKC 210752Z 01019KT 10SM SCT017 SCT200 BKN250 M05/M08 A3033 RMK AO2 PK WND 36027/0653 SLP284 T10501078 $
KOKC 210652Z 01019G23KT 10SM SCT015 SCT200 BKN250 M04/M07 A3030 RMK AO2 PK WND 36026/0636 SLP274 T10441072 $
KOKC 210621Z 01019G25KT 10SM SCT015 BKN250 M04/M07 A3028 RMK AO2 T10441067 $
KOKC 210601Z 01014KT 10SM BKN015 BKN250 M04/M07 A3027 RMK AO2 T10441067 $
KOKC 210552Z 02014G24KT 10SM BKN014 BKN250 M04/M07 A3029 RMK AO2 SLP272 T10441067 11028 21044 402001044 51033 $